Time;durP1;ratioP1;P1;durP2;ratioP2;P2;SDS_P1;SDS_P2;PMS_P1;PMS_P2;Temp;Humidity;BMP_temperature;BMP_pressure;BME280_temperature;BME280_humidity;BME280_pressure;Samples;Min_cycle;Max_cycle;Signal;HPM_P1;HPM_P2
2023/02/02 00:01:23;;;;;;;;;;;;;;;20.43;30.44;100643.02;105815;1286;60506;-80
2023/02/02 00:03:51;;;;;;;;;;;;;;;20.43;30.45;100644.39;105831;1287;60559;-80
2023/02/02 00:06:18;;;;;;;;;;;;;;;20.43;30.41;100655.34;105637;1286;61388;-80
2023/02/02 00:08:43;;;;;;;;;;;;;;;20.43;30.37;100655.15;105833;1286;60439;-80
2023/02/02 00:11:09;;;;;;;;;;;;;;;20.43;30.51;100657.79;105824;1291;60584;-80
2023/02/02 00:13:57;;;;;;;;;;;;;;;20.43;30.27;100657.13;105856;1286;60481;-80
2023/02/02 00:16:29;;;;;;;;;;;;;;;20.42;30.40;100655.73;105225;1294;60423;-80
2023/02/02 00:18:56;;;;;;;;;;;;;;;20.42;30.34;100658.05;105220;1295;72653;-80
2023/02/02 00:21:22;;;;;;;;;;;;;;;20.42;30.40;100659.14;105074;1295;74756;-80
2023/02/02 00:23:47;;;;;;;;;;;;;;;20.42;30.37;100657.20;105098;1292;60581;-80
2023/02/02 00:26:12;;;;;;;;;;;;;;;20.42;30.43;100653.95;105072;1295;60697;-81
2023/02/02 00:28:39;;;;;;;;;;;;;;;20.42;30.36;100652.56;105043;1298;60562;-80
2023/02/02 00:31:05;;;;;;;;;;;;;;;20.42;30.32;100645.23;105147;1294;60560;-80
2023/02/02 00:33:31;;;;;;;;;;;;;;;20.41;30.34;100647.05;105262;1293;60591;-80
2023/02/02 00:35:57;;;;;;;;;;;;;;;20.42;30.23;100639.16;105219;1293;60515;-80
2023/02/02 00:38:22;;;;;;;;;;;;;;;20.42;30.48;100635.23;105217;1294;59714;-81
2023/02/02 00:40:50;;;;;;;;;;;;;;;20.41;30.40;100633.30;105044;1298;60475;-80
2023/02/02 00:43:15;;;;;;;;;;;;;;;20.41;30.17;100635.45;105068;1292;60559;-80
2023/02/02 00:45:40;;;;;;;;;;;;;;;20.41;30.33;100626.31;105065;1293;60614;-81
2023/02/02 00:48:06;;;;;;;;;;;;;;;20.41;30.27;100625.95;105243;1295;60475;-80
2023/02/02 00:50:31;;;;;;;;;;;;;;;20.41;30.33;100622.93;105095;1295;60518;-81
2023/02/02 00:52:57;;;;;;;;;;;;;;;20.41;30.25;100619.17;105181;1286;60359;-80
2023/02/02 00:55:23;;;;;;;;;;;;;;;20.41;30.36;100622.04;105801;1286;60434;-80
2023/02/02 00:57:49;;;;;;;;;;;;;;;20.41;30.34;100618.83;105816;1289;60527;-80
2023/02/02 01:00:15;;;;;;;;;;;;;;;20.41;30.26;100613.67;105817;1286;60536;-80
2023/02/02 01:02:41;;;;;;;;;;;;;;;20.41;30.27;100609.88;105872;1290;60363;-80
2023/02/02 01:05:08;;;;;;;;;;;;;;;20.40;30.22;100613.33;105792;1291;60472;-80
2023/02/02 01:07:33;;;;;;;;;;;;;;;20.40;30.31;100613.87;105813;1286;60475;-80
2023/02/02 01:09:59;;;;;;;;;;;;;;;20.40;30.36;100609.75;105829;1291;60458;-80
2023/02/02 01:12:24;;;;;;;;;;;;;;;20.40;30.20;100609.74;105800;1286;60609;-80
2023/02/02 01:14:50;;;;;;;;;;;;;;;20.40;30.31;100606.19;105883;1291;60358;-80
2023/02/02 01:17:16;;;;;;;;;;;;;;;20.41;30.16;100605.63;105918;1286;60471;-79
2023/02/02 01:19:41;;;;;;;;;;;;;;;20.40;30.23;100602.07;105823;1291;58521;-80
2023/02/02 01:22:07;;;;;;;;;;;;;;;20.39;30.09;100600.16;105806;1287;60469;-80
2023/02/02 01:24:32;;;;;;;;;;;;;;;20.39;30.29;100599.45;105937;1286;60439;-80
2023/02/02 01:26:58;;;;;;;;;;;;;;;20.40;30.08;100598.17;105804;1286;72401;-80
2023/02/02 01:29:24;;;;;;;;;;;;;;;20.40;30.01;100596.02;105655;1286;60470;-80
2023/02/02 01:31:49;;;;;;;;;;;;;;;20.40;30.26;100598.17;105874;1286;60437;-81
2023/02/02 01:34:15;;;;;;;;;;;;;;;20.39;30.14;100599.98;105611;1286;60485;-80
2023/02/02 01:36:40;;;;;;;;;;;;;;;20.39;30.05;100601.95;105671;1286;60638;-81
2023/02/02 01:39:05;;;;;;;;;;;;;;;20.39;30.10;100607.86;105862;1289;72288;-81
2023/02/02 01:41:32;;;;;;;;;;;;;;;20.39;30.32;100608.76;105794;1289;60471;-81
2023/02/02 01:43:59;;;;;;;;;;;;;;;20.39;30.21;100609.86;105796;1290;60575;-80
2023/02/02 01:46:26;;;;;;;;;;;;;;;20.39;30.24;100613.27;105785;1287;60534;-80
2023/02/02 01:48:53;;;;;;;;;;;;;;;20.39;30.22;100607.94;105878;1291;60407;-80
2023/02/02 01:51:20;;;;;;;;;;;;;;;20.38;30.21;100604.38;105774;1291;74450;-80
2023/02/02 01:53:46;;;;;;;;;;;;;;;20.38;30.00;100600.98;105626;1292;60446;-80
2023/02/02 01:56:14;;;;;;;;;;;;;;;20.38;30.19;100595.98;105787;1291;59240;-80
2023/02/02 01:58:40;;;;;;;;;;;;;;;20.38;30.28;100591.32;105881;1288;72654;-80
2023/02/02 02:01:05;;;;;;;;;;;;;;;20.38;30.18;100590.98;105868;1286;60476;-80
2023/02/02 02:03:31;;;;;;;;;;;;;;;20.38;30.08;100592.42;105785;1291;60465;-80
2023/02/02 02:05:59;;;;;;;;;;;;;;;20.38;30.07;100587.05;105782;1286;60450;-80
2023/02/02 02:08:26;;;;;;;;;;;;;;;20.38;30.14;100591.17;105602;1292;60476;-80
2023/02/02 02:10:52;;;;;;;;;;;;;;;20.38;30.07;100587.41;105882;1286;60575;-80
2023/02/02 02:13:18;;;;;;;;;;;;;;;20.37;30.09;100587.96;105800;1286;60461;-80
2023/02/02 02:18:57;;;;;;;;;;;;;;;20.37;30.03;100587.83;105682;1287;71871;-80
2023/02/02 02:27:29;;;;;;;;;;;;;;;20.37;30.06;100595.34;104826;1302;61504;-81
2023/02/02 02:29:54;;;;;;;;;;;;;;;20.38;30.08;100595.13;105096;1295;72781;-80
2023/02/02 02:32:20;;;;;;;;;;;;;;;20.37;30.04;100590.68;105184;1298;60530;-80
2023/02/02 02:34:51;;;;;;;;;;;;;;;20.37;30.13;100587.63;105065;1293;60473;-80
2023/02/02 02:37:31;;;;;;;;;;;;;;;20.37;29.90;100585.13;105176;1297;60709;-80
2023/02/02 02:40:01;;;;;;;;;;;;;;;20.37;29.92;100582.31;105220;1292;72585;-80
2023/02/02 02:42:27;;;;;;;;;;;;;;;20.37;29.90;100583.92;105204;1295;74366;-81
2023/02/02 02:44:53;;;;;;;;;;;;;;;20.36;29.77;100584.66;105208;1292;60430;-80
2023/02/02 02:47:18;;;;;;;;;;;;;;;20.37;30.13;100583.00;105054;1293;60654;-81
2023/02/02 02:49:44;;;;;;;;;;;;;;;20.36;29.99;100581.08;105051;1295;60486;-81
2023/02/02 02:52:10;;;;;;;;;;;;;;;20.37;29.90;100588.73;105054;1292;60483;-81
2023/02/02 02:54:48;;;;;;;;;;;;;;;20.37;29.98;100594.27;105040;1292;60574;-80
2023/02/02 02:57:33;;;;;;;;;;;;;;;20.36;30.02;100602.70;105132;1297;61720;-80
2023/02/02 03:00:17;;;;;;;;;;;;;;;20.37;29.97;100606.09;105720;1286;72326;-80
2023/02/02 03:03:02;;;;;;;;;;;;;;;20.37;29.99;100610.16;105772;1286;73734;-80
2023/02/02 03:05:48;;;;;;;;;;;;;;;20.37;29.99;100608.73;105893;1286;60765;-80
2023/02/02 03:08:22;;;;;;;;;;;;;;;20.37;29.98;100609.30;105898;1285;60476;-80
2023/02/02 03:10:48;;;;;;;;;;;;;;;20.37;30.11;100613.04;105897;1289;73275;-80
2023/02/02 03:13:13;;;;;;;;;;;;;;;20.37;30.03;100617.29;105608;1286;60613;-80
2023/02/02 03:15:40;;;;;;;;;;;;;;;20.37;29.97;100612.15;105803;1286;60552;-80
2023/02/02 03:18:06;;;;;;;;;;;;;;;20.37;30.06;100612.48;105770;1286;60398;-80
2023/02/02 03:20:33;;;;;;;;;;;;;;;20.37;30.07;100623.04;105801;1286;60472;-80
2023/02/02 03:22:58;;;;;;;;;;;;;;;20.37;29.90;100630.20;105794;1286;60476;-80
2023/02/02 03:25:24;;;;;;;;;;;;;;;20.37;29.98;100626.83;105805;1286;60479;-80
2023/02/02 03:27:49;;;;;;;;;;;;;;;20.36;29.95;100622.21;105859;1286;60527;-80
2023/02/02 03:30:15;;;;;;;;;;;;;;;20.37;29.89;100615.39;105892;1286;60383;-80
2023/02/02 03:32:40;;;;;;;;;;;;;;;20.36;29.92;100617.95;105768;1291;60545;-80
2023/02/02 03:35:06;;;;;;;;;;;;;;;20.36;29.89;100613.80;105797;1286;60468;-80
2023/02/02 03:37:32;;;;;;;;;;;;;;;20.36;29.96;100607.02;105791;1286;59084;-80
2023/02/02 03:39:57;;;;;;;;;;;;;;;20.36;29.98;100609.39;105887;1286;60571;-80
2023/02/02 03:42:23;;;;;;;;;;;;;;;20.35;29.84;100615.65;105836;1286;60568;-80
2023/02/02 03:44:48;;;;;;;;;;;;;;;20.36;29.90;100617.96;105834;1290;59390;-80
2023/02/02 03:47:14;;;;;;;;;;;;;;;20.35;29.77;100615.85;105914;1286;60433;-80
2023/02/02 03:49:39;;;;;;;;;;;;;;;20.35;29.92;100614.23;105630;1292;60465;-80
2023/02/02 03:52:05;;;;;;;;;;;;;;;20.35;29.74;100612.09;105895;1286;60466;-80
2023/02/02 03:54:31;;;;;;;;;;;;;;;20.35;29.90;100624.09;105803;1291;60411;-80
2023/02/02 03:56:56;;;;;;;;;;;;;;;20.35;30.00;100624.66;105876;1286;72530;-80
2023/02/02 03:59:22;;;;;;;;;;;;;;;20.35;30.04;100621.41;105708;1286;60491;-80
2023/02/02 04:01:47;;;;;;;;;;;;;;;20.35;29.88;100617.30;105786;1286;59300;-80
2023/02/02 04:04:13;;;;;;;;;;;;;;;20.35;30.02;100609.42;105877;1286;60472;-81
2023/02/02 04:06:39;;;;;;;;;;;;;;;20.35;29.94;100609.29;105839;1286;60421;-81
2023/02/02 04:09:04;;;;;;;;;;;;;;;20.34;29.95;100602.16;105768;1286;73343;-80
2023/02/02 04:11:30;;;;;;;;;;;;;;;20.34;29.81;100597.70;105873;1286;60466;-81
2023/02/02 04:13:55;;;;;;;;;;;;;;;20.34;30.01;100598.23;105782;1286;60466;-80
2023/02/02 04:16:21;;;;;;;;;;;;;;;20.34;29.91;100599.51;105672;1286;60360;-80
2023/02/02 04:18:46;;;;;;;;;;;;;;;20.34;29.94;100606.27;105915;1286;60471;-80
2023/02/02 04:21:12;;;;;;;;;;;;;;;20.34;29.92;100606.84;105735;1291;73553;-80
2023/02/02 04:23:38;;;;;;;;;;;;;;;20.34;29.86;100608.25;105800;1286;60539;-80
2023/02/02 04:26:04;;;;;;;;;;;;;;;20.34;29.90;100611.48;105790;1286;60465;-80
2023/02/02 04:28:30;;;;;;;;;;;;;;;20.33;29.88;100605.98;105785;1286;60469;-80
2023/02/02 04:30:55;;;;;;;;;;;;;;;20.34;29.92;100610.61;105887;1286;60542;-80
2023/02/02 04:33:21;;;;;;;;;;;;;;;20.34;29.87;100613.83;105812;1286;60970;-80
2023/02/02 04:35:52;;;;;;;;;;;;;;;20.33;29.80;100624.02;105825;1286;60469;-81
2023/02/02 04:38:18;;;;;;;;;;;;;;;20.34;29.89;100624.19;105881;1286;60328;-81
2023/02/02 04:40:44;;;;;;;;;;;;;;;20.34;29.79;100626.13;105808;1285;60437;-81
2023/02/02 04:43:10;;;;;;;;;;;;;;;20.34;29.90;100626.85;105639;1286;60364;-81
2023/02/02 04:45:35;;;;;;;;;;;;;;;20.34;29.89;100627.36;105822;1290;60471;-81
2023/02/02 04:48:01;;;;;;;;;;;;;;;20.35;29.91;100634.83;105816;1290;60497;-81
2023/02/02 04:50:26;;;;;;;;;;;;;;;20.35;29.95;100628.93;105838;1286;60450;-80
2023/02/02 04:52:52;;;;;;;;;;;;;;;20.35;30.03;100633.40;105805;1286;60686;-79
2023/02/02 04:55:17;;;;;;;;;;;;;;;20.35;30.03;100641.78;105809;1286;60584;-81
2023/02/02 04:57:43;;;;;;;;;;;;;;;20.35;29.89;100640.36;105812;1286;60503;-81
2023/02/02 05:00:10;;;;;;;;;;;;;;;20.35;29.90;100643.92;105819;1286;60440;-81
2023/02/02 05:02:36;;;;;;;;;;;;;;;20.35;30.11;100647.48;105786;1286;60537;-81
2023/02/02 05:05:02;;;;;;;;;;;;;;;20.35;29.88;100646.44;105821;1286;60460;-81
2023/02/02 05:07:27;;;;;;;;;;;;;;;20.35;29.94;100649.84;105780;1286;60565;-82
2023/02/02 05:09:52;;;;;;;;;;;;;;;20.33;30.00;100648.50;105825;1286;60465;-81
2023/02/02 05:12:18;;;;;;;;;;;;;;;20.33;30.03;100649.83;105827;1289;60575;-82
2023/02/02 05:14:43;;;;;;;;;;;;;;;20.32;30.04;100647.02;105776;1286;60604;-81
2023/02/02 05:17:09;;;;;;;;;;;;;;;20.30;29.99;100646.96;105886;1286;60450;-81
2023/02/02 05:19:35;;;;;;;;;;;;;;;20.29;29.99;100644.52;105925;1286;60436;-81
2023/02/02 05:22:00;;;;;;;;;;;;;;;20.28;29.90;100644.05;105864;1286;59288;-81
2023/02/02 05:24:26;;;;;;;;;;;;;;;20.27;29.94;100641.64;105809;1286;60465;-81
2023/02/02 05:26:57;;;;;;;;;;;;;;;20.24;29.86;100634.65;105869;1285;60464;-81
2023/02/02 05:29:23;;;;;;;;;;;;;;;20.20;29.94;100642.30;105674;1286;73257;-81
2023/02/02 05:31:48;;;;;;;;;;;;;;;20.15;29.94;100643.70;105806;1286;60594;-81
2023/02/02 05:34:14;;;;;;;;;;;;;;;20.09;29.85;100646.94;105833;1285;60507;-80
2023/02/02 05:36:40;;;;;;;;;;;;;;;20.04;29.99;100645.17;105786;1286;60578;-81
2023/02/02 05:39:05;;;;;;;;;;;;;;;19.99;29.91;100650.17;105842;1286;61071;-81
2023/02/02 05:41:31;;;;;;;;;;;;;;;19.93;29.85;100654.85;105860;1286;60586;-81
2023/02/02 05:43:59;;;;;;;;;;;;;;;19.88;29.92;100659.85;105857;1286;73746;-81
2023/02/02 05:46:25;;;;;;;;;;;;;;;19.83;29.76;100665.38;105828;1286;60109;-81
2023/02/02 05:48:50;;;;;;;;;;;;;;;19.79;30.00;100662.78;105847;1285;59716;-80
2023/02/02 05:51:20;;;;;;;;;;;;;;;19.74;30.00;100659.52;105814;1288;59540;-80
2023/02/02 05:53:45;;;;;;;;;;;;;;;19.70;29.88;100661.04;105803;1286;73711;-81
2023/02/02 05:56:12;;;;;;;;;;;;;;;19.66;29.97;100651.69;105748;1286;60632;-81
2023/02/02 05:58:37;;;;;;;;;;;;;;;19.61;29.76;100658.27;105866;1287;59182;-81
2023/02/02 06:01:03;;;;;;;;;;;;;;;19.54;29.75;100661.00;105815;1286;58548;-82
2023/02/02 06:03:28;;;;;;;;;;;;;;;19.50;29.84;100667.88;105615;1286;61201;-82
2023/02/02 06:05:54;;;;;;;;;;;;;;;19.48;29.95;100670.20;105704;1292;60261;-81
2023/02/02 06:08:19;;;;;;;;;;;;;;;19.46;29.91;100666.41;105726;1286;59262;-80
2023/02/02 06:10:45;;;;;;;;;;;;;;;19.44;29.95;100661.50;105900;1286;60249;-80
2023/02/02 06:13:10;;;;;;;;;;;;;;;19.45;30.10;100657.00;105684;1286;60498;-81
2023/02/02 06:15:36;;;;;;;;;;;;;;;19.47;30.08;100654.20;105876;1286;58944;-80
2023/02/02 06:18:02;;;;;;;;;;;;;;;19.49;29.89;100652.62;105912;1286;59334;-80
2023/02/02 06:20:28;;;;;;;;;;;;;;;19.52;30.10;100651.14;105731;1286;61112;-80
2023/02/02 06:22:54;;;;;;;;;;;;;;;19.56;29.86;100654.99;105832;1286;60286;-80
2023/02/02 06:25:21;;;;;;;;;;;;;;;19.60;29.90;100657.05;105788;1286;59273;-81
2023/02/02 06:27:49;;;;;;;;;;;;;;;19.64;30.00;100658.59;105739;1286;59535;-81
2023/02/02 06:30:15;;;;;;;;;;;;;;;19.67;30.12;100666.06;105791;1286;60936;-81
2023/02/02 06:32:40;;;;;;;;;;;;;;;19.71;30.11;100668.83;105731;1286;60530;-80
2023/02/02 06:35:06;;;;;;;;;;;;;;;19.74;30.16;100667.73;105812;1286;59737;-80
2023/02/02 06:37:33;;;;;;;;;;;;;;;19.77;30.27;100663.05;105705;1286;60417;-80
2023/02/02 06:39:58;;;;;;;;;;;;;;;19.81;30.19;100664.40;105766;1286;60368;-80
2023/02/02 06:42:24;;;;;;;;;;;;;;;19.84;30.48;100663.52;105743;1286;60463;-81
2023/02/02 06:44:49;;;;;;;;;;;;;;;19.87;30.44;100660.61;105820;1286;60623;-80
2023/02/02 06:47:15;;;;;;;;;;;;;;;19.91;30.52;100667.49;105683;1286;59854;-81
2023/02/02 06:49:41;;;;;;;;;;;;;;;19.93;30.63;100668.23;105769;1286;60272;-80
2023/02/02 06:52:07;;;;;;;;;;;;;;;19.96;30.69;100669.00;105756;1286;59637;-81
2023/02/02 06:54:32;;;;;;;;;;;;;;;19.98;30.61;100673.46;105780;1286;58651;-81
2023/02/02 06:56:57;;;;;;;;;;;;;;;20.00;30.94;100673.86;105835;1287;60455;-81
2023/02/02 06:59:23;;;;;;;;;;;;;;;19.96;30.80;100671.30;105876;1286;59577;-82
2023/02/02 07:01:49;;;;;;;;;;;;;;;19.89;31.00;100673.72;104532;1286;1737040;-80
2023/02/02 07:04:17;;;;;;;;;;;;;;;19.85;30.95;100671.09;105813;1286;59426;-82
2023/02/02 07:06:43;;;;;;;;;;;;;;;19.84;31.04;100668.86;105815;1286;60648;-81
2023/02/02 07:09:08;;;;;;;;;;;;;;;19.84;30.98;100672.60;105792;1285;59425;-81
2023/02/02 07:11:35;;;;;;;;;;;;;;;19.85;31.06;100675.42;105806;1288;59187;-81
2023/02/02 07:14:00;;;;;;;;;;;;;;;19.85;31.04;100682.00;105889;1286;60434;-82
2023/02/02 07:16:27;;;;;;;;;;;;;;;19.86;31.07;100678.36;105894;1286;60246;-81
2023/02/02 07:18:52;;;;;;;;;;;;;;;19.87;31.00;100674.91;105873;1286;59399;-81
2023/02/02 07:21:18;;;;;;;;;;;;;;;19.90;31.00;100680.11;105956;1285;59362;-81
2023/02/02 07:23:44;;;;;;;;;;;;;;;19.92;31.01;100687.98;105673;1286;76124;-81
2023/02/02 07:26:10;;;;;;;;;;;;;;;19.93;31.00;100687.36;105888;1285;60600;-81
2023/02/02 07:28:36;;;;;;;;;;;;;;;19.95;30.87;100693.33;105827;1286;60837;-82
2023/02/02 07:31:12;;;;;;;;;;;;;;;19.97;31.09;100702.46;105878;1285;59923;-81
2023/02/02 07:33:40;;;;;;;;;;;;;;;19.99;31.02;100703.95;105883;1285;73555;-81
2023/02/02 07:36:06;;;;;;;;;;;;;;;20.00;31.09;100701.55;105831;1286;60770;-81
2023/02/02 07:38:31;;;;;;;;;;;;;;;20.02;30.92;100708.39;105925;1286;60592;-81
2023/02/02 07:40:59;;;;;;;;;;;;;;;20.03;31.09;100715.27;105942;1287;58939;-80
2023/02/02 07:43:26;;;;;;;;;;;;;;;20.05;31.11;100720.85;105915;1286;60347;-80
2023/02/02 07:45:54;;;;;;;;;;;;;;;20.08;31.15;100721.21;105818;1286;60569;-80
2023/02/02 07:48:20;;;;;;;;;;;;;;;20.09;31.04;100718.79;105855;1286;60363;-81
2023/02/02 07:50:46;;;;;;;;;;;;;;;20.11;31.12;100714.02;105774;1286;60463;-81
2023/02/02 07:53:11;;;;;;;;;;;;;;;20.12;31.10;100704.30;105867;1286;58886;-82
2023/02/02 07:55:36;;;;;;;;;;;;;;;20.10;31.15;100693.86;105802;1286;60352;-81
2023/02/02 07:58:06;;;;;;;;;;;;;;;20.06;31.12;100692.41;105878;1285;60624;-82
2023/02/02 08:00:32;;;;;;;;;;;;;;;19.99;31.46;100686.11;105849;1290;60645;-81
2023/02/02 08:02:57;;;;;;;;;;;;;;;19.99;31.62;100675.20;105849;1286;60501;-82
2023/02/02 08:05:23;;;;;;;;;;;;;;;19.98;31.93;100670.41;105913;1285;61814;-81
2023/02/02 08:07:48;;;;;;;;;;;;;;;19.97;31.91;100675.17;105811;1286;59174;-81
2023/02/02 08:10:14;;;;;;;;;;;;;;;19.96;32.03;100680.25;105909;1285;60987;-80
2023/02/02 08:12:39;;;;;;;;;;;;;;;19.94;31.98;100679.80;105929;1286;60485;-81
2023/02/02 08:15:06;;;;;;;;;;;;;;;19.92;32.15;100675.98;105856;1285;60549;-81
2023/02/02 08:17:32;;;;;;;;;;;;;;;19.89;32.20;100673.52;105824;1286;59212;-84
2023/02/02 08:19:57;;;;;;;;;;;;;;;19.89;32.06;100677.30;105855;1285;61517;-81
2023/02/02 08:22:23;;;;;;;;;;;;;;;19.88;32.08;100657.87;105799;1286;59378;-81
2023/02/02 08:24:48;;;;;;;;;;;;;;;19.90;32.03;100647.05;105875;1291;60634;-81
2023/02/02 08:27:14;;;;;;;;;;;;;;;19.91;32.06;100646.44;105817;1286;61238;-81
2023/02/02 08:29:40;;;;;;;;;;;;;;;19.92;31.89;100645.31;106007;1286;59300;-82
2023/02/02 08:32:05;;;;;;;;;;;;;;;19.94;32.00;100645.52;105780;1286;59285;-81
2023/02/02 08:34:35;;;;;;;;;;;;;;;19.96;31.96;100648.93;105910;1286;60388;-82
2023/02/02 08:37:01;;;;;;;;;;;;;;;19.98;31.96;100644.20;105937;1286;74539;-81
2023/02/02 08:39:27;;;;;;;;;;;;;;;19.99;31.81;100637.13;105874;1285;59281;-81
2023/02/02 08:41:55;;;;;;;;;;;;;;;20.01;31.72;100636.12;105905;1285;60501;-81
2023/02/02 08:44:20;;;;;;;;;;;;;;;20.02;31.81;100642.09;105776;1286;72552;-81
2023/02/02 08:46:46;;;;;;;;;;;;;;;20.04;31.89;100641.63;105800;1286;60742;-81
2023/02/02 08:49:11;;;;;;;;;;;;;;;20.05;31.77;100633.71;105866;1286;60360;-81
2023/02/02 08:51:37;;;;;;;;;;;;;;;20.06;31.83;100637.70;105542;1289;60560;-81
2023/02/02 08:54:02;;;;;;;;;;;;;;;20.07;31.83;100644.42;105490;1289;60486;-81
2023/02/02 08:56:28;;;;;;;;;;;;;;;20.08;31.74;100650.60;105535;1289;72566;-80
2023/02/02 08:58:54;;;;;;;;;;;;;;;20.09;31.73;100654.64;105506;1291;59109;-80
2023/02/02 09:01:20;;;;;;;;;;;;;;;20.11;31.74;100661.87;105512;1289;60428;-80
2023/02/02 09:03:46;;;;;;;;;;;;;;;20.12;31.82;100665.38;105518;1288;59056;-82
2023/02/02 09:06:12;;;;;;;;;;;;;;;20.12;31.96;100663.77;105516;1291;58726;-81
2023/02/02 09:08:38;;;;;;;;;;;;;;;20.09;32.08;100659.79;105398;1289;61776;-82
2023/02/02 09:11:04;;;;;;;;;;;;;;;20.03;31.94;100661.02;105597;1289;59614;-82
2023/02/02 09:13:30;;;;;;;;;;;;;;;19.95;32.22;100659.56;105515;1289;59374;-81
2023/02/02 09:15:58;;;;;;;;;;;;;;;19.93;32.35;100665.92;105548;1288;60402;-80
2023/02/02 09:18:23;;;;;;;;;;;;;;;19.93;32.32;100671.63;105568;1288;73575;-81
2023/02/02 09:20:49;;;;;;;;;;;;;;;19.94;32.18;100677.84;105448;1290;59268;-81
2023/02/02 09:23:14;;;;;;;;;;;;;;;19.97;32.28;100679.80;105569;1286;59678;-81
2023/02/02 09:25:40;;;;;;;;;;;;;;;19.99;32.45;100672.88;105818;1286;59124;-81
2023/02/02 09:28:05;;;;;;;;;;;;;;;20.01;32.44;100659.34;105968;1286;59969;-81
2023/02/02 09:30:31;;;;;;;;;;;;;;;20.03;32.39;100653.80;105527;1286;72441;-81
2023/02/02 09:32:57;;;;;;;;;;;;;;;20.05;32.56;100653.85;105866;1286;58830;-81
2023/02/02 09:35:23;;;;;;;;;;;;;;;20.07;32.40;100644.79;105842;1285;59697;-81
2023/02/02 09:37:49;;;;;;;;;;;;;;;20.09;32.40;100639.98;105588;1288;60344;-81
2023/02/02 09:40:16;;;;;;;;;;;;;;;20.12;32.55;100634.30;105559;1292;60597;-81
2023/02/02 09:42:43;;;;;;;;;;;;;;;20.13;32.39;100629.17;105576;1289;60489;-81
2023/02/02 09:45:12;;;;;;;;;;;;;;;20.15;32.54;100626.38;106136;1287;59738;-81
2023/02/02 09:47:40;;;;;;;;;;;;;;;20.16;32.58;100630.04;106186;1288;59968;-81
2023/02/02 09:50:24;;;;;;;;;;;;;;;20.17;32.59;100634.63;105601;1289;71534;-82
2023/02/02 09:52:54;;;;;;;;;;;;;;;20.19;32.71;100641.12;105544;1288;74593;-83
2023/02/02 09:55:37;;;;;;;;;;;;;;;20.20;32.80;100644.41;105597;1289;60284;-81
2023/02/02 09:58:03;;;;;;;;;;;;;;;20.21;32.77;100644.01;105575;1288;60262;-82
2023/02/02 10:00:30;;;;;;;;;;;;;;;20.21;32.68;100649.55;105576;1289;59324;-82
2023/02/02 10:03:01;;;;;;;;;;;;;;;20.17;32.68;100659.98;105476;1289;60557;-85
2023/02/02 10:05:28;;;;;;;;;;;;;;;20.10;32.89;100652.41;105505;1288;60977;-81
2023/02/02 10:07:56;;;;;;;;;;;;;;;20.06;33.18;100652.16;105473;1289;61066;-83
2023/02/02 10:10:43;;;;;;;;;;;;;;;20.02;33.47;100642.83;105815;1286;73786;-81
2023/02/02 10:13:10;;;;;;;;;;;;;;;19.99;33.52;100630.14;105870;1286;74880;-82
2023/02/02 10:16:00;;;;;;;;;;;;;;;19.97;33.44;100625.14;105689;1286;60741;-81
2023/02/02 10:19:01;;;;;;;;;;;;;;;19.94;33.57;100621.05;105880;1286;60426;-82
2023/02/02 10:21:26;;;;;;;;;;;;;;;19.94;33.61;100609.79;105145;1294;73669;-81
2023/02/02 10:23:53;;;;;;;;;;;;;;;19.94;33.65;100601.95;105202;1294;60334;-82
2023/02/02 10:26:19;;;;;;;;;;;;;;;19.94;33.63;100605.52;105203;1294;59376;-82
2023/02/02 10:29:01;;;;;;;;;;;;;;;19.94;33.66;100604.95;105223;1294;60393;-80
2023/02/02 10:31:26;;;;;;;;;;;;;;;19.93;33.66;100597.13;105862;1293;72730;-82
2023/02/02 10:34:25;;;;;;;;;;;;;;;19.94;33.91;100599.27;105444;1294;60476;-82
2023/02/02 10:37:05;;;;;;;;;;;;;;;19.93;33.78;100596.10;104984;1294;60574;-83
2023/02/02 10:39:54;;;;;;;;;;;;;;;19.95;33.89;100588.70;105105;1293;60060;-82
2023/02/02 10:42:29;;;;;;;;;;;;;;;19.95;33.94;100584.89;104745;1300;72424;-81
2023/02/02 10:44:58;;;;;;;;;;;;;;;19.92;33.97;100586.65;104742;1301;74863;-81
2023/02/02 10:47:28;;;;;;;;;;;;;;;19.92;33.79;100567.38;105275;1301;59700;-81
2023/02/02 10:50:14;;;;;;;;;;;;;;;19.93;33.97;100565.75;105208;1300;61431;-81
2023/02/02 10:52:41;;;;;;;;;;;;;;;19.95;34.06;100578.65;104737;1299;73498;-81
2023/02/02 10:55:12;;;;;;;;;;;;;;;19.97;33.92;100584.58;104779;1293;73486;-82
2023/02/02 10:57:52;;;;;;;;;;;;;;;19.99;34.16;100583.69;105210;1292;61219;-81
2023/02/02 11:00:19;;;;;;;;;;;;;;;20.02;34.21;100571.02;105317;1291;61058;-81
2023/02/02 11:02:47;;;;;;;;;;;;;;;20.03;34.32;100565.23;105269;1292;71338;-82
2023/02/02 11:08:00;;;;;;;;;;;;;;;19.91;34.20;100568.77;105382;1294;61035;-82
2023/02/02 11:10:25;;;;;;;;;;;;;;;19.84;34.19;100558.88;105261;1292;60160;-82
2023/02/02 11:12:52;;;;;;;;;;;;;;;19.80;34.34;100553.59;105288;1294;58755;-82
2023/02/02 11:15:28;;;;;;;;;;;;;;;19.65;33.85;100556.55;105334;1294;59189;-82
2023/02/02 11:17:54;;;;;;;;;;;;;;;19.54;33.88;100550.53;105266;1292;60891;-82
2023/02/02 11:20:21;;;;;;;;;;;;;;;19.53;33.91;100541.85;105756;1286;58492;-81
2023/02/02 11:22:46;;;;;;;;;;;;;;;19.56;34.02;100541.80;106368;1286;59136;-82
2023/02/02 11:25:34;;;;;;;;;;;;;;;19.60;34.00;100538.51;106368;1286;58720;-82
2023/02/02 11:28:00;;;;;;;;;;;;;;;19.65;34.03;100534.43;106325;1286;60041;-82
2023/02/02 11:30:30;;;;;;;;;;;;;;;19.69;33.92;100535.94;106451;1285;58577;-82
2023/02/02 11:32:56;;;;;;;;;;;;;;;19.72;34.02;100534.29;106260;1286;73637;-82
2023/02/02 11:35:22;;;;;;;;;;;;;;;19.75;34.02;100526.77;105944;1286;60489;-81
2023/02/02 11:37:55;;;;;;;;;;;;;;;19.78;34.00;100521.80;105964;1286;60465;-81
2023/02/02 11:40:29;;;;;;;;;;;;;;;19.81;33.89;100518.55;105847;1286;60352;-81
2023/02/02 11:42:55;;;;;;;;;;;;;;;19.82;33.92;100511.13;105955;1286;72562;-83
2023/02/02 11:45:40;;;;;;;;;;;;;;;19.83;33.79;100511.45;105819;1286;60680;-82
2023/02/02 11:48:32;;;;;;;;;;;;;;;19.81;33.76;100504.64;105970;1286;60322;-83
2023/02/02 11:50:58;;;;;;;;;;;;;;;19.75;33.53;100498.36;105380;1291;60465;-82
2023/02/02 11:53:34;;;;;;;;;;;;;;;19.70;33.60;100492.64;105410;1291;60398;-82
2023/02/02 11:56:04;;;;;;;;;;;;;;;19.65;33.46;100490.53;105446;1291;73688;-83
2023/02/02 11:58:49;;;;;;;;;;;;;;;19.63;33.47;100486.97;105276;1292;60808;-83
2023/02/02 12:01:22;;;;;;;;;;;;;;;19.53;33.51;100480.42;105391;1292;60492;-81
2023/02/02 12:03:48;;;;;;;;;;;;;;;19.37;33.33;100482.99;105363;1294;73814;-83
2023/02/02 12:06:20;;;;;;;;;;;;;;;19.31;33.56;100477.48;105430;1292;60587;-82
2023/02/02 12:08:46;;;;;;;;;;;;;;;19.25;33.52;100472.36;105459;1291;59718;-81
2023/02/02 12:11:19;;;;;;;;;;;;;;;19.22;33.45;100461.37;105516;1291;60575;-81
2023/02/02 12:13:44;;;;;;;;;;;;;;;19.22;33.58;100467.61;105418;1291;73597;-81
2023/02/02 12:16:16;;;;;;;;;;;;;;;19.19;33.45;100485.33;105461;1291;60265;-82
2023/02/02 12:18:48;;;;;;;;;;;;;;;19.14;33.64;100483.81;105430;1290;60425;-81
2023/02/02 12:21:13;;;;;;;;;;;;;;;19.14;33.68;100471.52;105474;1291;60299;-82
2023/02/02 12:23:46;;;;;;;;;;;;;;;19.17;33.60;100469.40;105317;1292;58692;-81
2023/02/02 12:26:34;;;;;;;;;;;;;;;19.19;33.66;100470.68;105441;1291;74943;-81
2023/02/02 12:29:02;;;;;;;;;;;;;;;19.20;33.72;100472.73;105839;1286;60992;-82
2023/02/02 12:31:46;;;;;;;;;;;;;;;19.21;33.70;100471.95;105986;1286;60544;-82
2023/02/02 12:34:11;;;;;;;;;;;;;;;19.22;33.83;100462.61;105870;1288;72993;-82
2023/02/02 12:36:41;;;;;;;;;;;;;;;19.21;33.67;100460.52;105947;1286;60431;-82
2023/02/02 12:39:09;;;;;;;;;;;;;;;19.20;33.72;100448.79;105887;1289;60488;-82
2023/02/02 12:41:54;;;;;;;;;;;;;;;19.22;33.56;100449.24;105959;1286;60275;-82